Time;durP1;ratioP1;P1;durP2;ratioP2;P2;SDS_P1;SDS_P2;PMS_P1;PMS_P2;Temp;Humidity;BMP_temperature;BMP_pressure;BME280_temperature;BME280_humidity;BME280_pressure;Samples;Min_cycle;Max_cycle;Signal;HPM_P1;HPM_P2
2023/07/16 00:00:19;;;;;;;2.58;1.52;;;;;;;18.48;100.00;100164.22;687885;28;865;-67
2023/07/16 00:00:43;;;;;;;3.75;1.70;;;;;;;18.49;100.00;100168.59;687547;28;4321;-67
2023/07/16 00:01:04;;;;;;;3.30;1.50;;;;;;;18.49;100.00;100163.31;690393;28;858;-68
2023/07/16 00:01:24;;;;;;;3.43;1.70;;;;;;;18.51;100.00;100164.97;690167;28;879;-67
2023/07/16 00:01:44;;;;;;;4.07;1.65;;;;;;;18.53;100.00;100167.53;687070;28;1472;-68
2023/07/16 00:02:05;;;;;;;3.43;1.57;;;;;;;18.53;100.00;100171.03;690597;28;893;-67
2023/07/16 00:02:26;;;;;;;3.72;1.50;;;;;;;18.54;100.00;100163.97;690309;28;864;-68
2023/07/16 00:02:46;;;;;;;4.57;1.67;;;;;;;18.53;100.00;100163.09;688505;28;1554;-68
2023/07/16 00:03:07;;;;;;;3.72;1.60;;;;;;;18.53;100.00;100167.53;689739;28;908;-67
2023/07/16 00:03:27;;;;;;;3.87;1.50;;;;;;;18.51;100.00;100170.25;690341;28;1035;-68
2023/07/16 00:03:47;;;;;;;3.05;1.70;;;;;;;18.52;100.00;100174.59;689445;28;4488;-67
2023/07/16 00:04:08;;;;;;;3.27;1.80;;;;;;;18.52;100.00;100165.81;690605;28;758;-68
2023/07/16 00:04:28;;;;;;;3.45;1.60;;;;;;;18.54;100.00;100166.59;690555;28;868;-67
2023/07/16 00:04:49;;;;;;;3.10;1.57;;;;;;;18.53;100.00;100168.38;689947;28;887;-67
2023/07/16 00:05:09;;;;;;;2.88;1.52;;;;;;;18.53;100.00;100164.88;690968;28;1031;-68
2023/07/16 00:05:30;;;;;;;3.77;1.80;;;;;;;18.52;100.00;100173.75;690720;28;806;-67
2023/07/16 00:05:51;;;;;;;3.90;1.70;;;;;;;18.52;100.00;100171.94;688769;28;1849;-67
2023/07/16 00:06:11;;;;;;;3.67;1.50;;;;;;;18.52;100.00;100171.09;690700;28;912;-67
2023/07/16 00:06:31;;;;;;;3.20;1.50;;;;;;;18.52;100.00;100174.59;690669;28;932;-67
2023/07/16 00:06:52;;;;;;;3.70;1.60;;;;;;;18.51;100.00;100170.25;688267;28;4405;-68
2023/07/16 00:07:12;;;;;;;3.13;1.52;;;;;;;18.51;100.00;100164.06;690500;28;1135;-67
2023/07/16 00:07:33;;;;;;;2.80;1.50;;;;;;;18.50;100.00;100168.53;689771;28;1227;-67
2023/07/16 00:07:53;;;;;;;3.17;1.52;;;;;;;18.50;100.00;100173.81;689346;28;1543;-67
2023/07/16 00:08:14;;;;;;;4.22;1.60;;;;;;;18.50;100.00;100167.69;691148;28;833;-67
2023/07/16 00:08:34;;;;;;;4.90;1.60;;;;;;;18.49;100.00;100172.09;690997;28;960;-67
2023/07/16 00:08:55;;;;;;;3.92;1.73;;;;;;;18.51;100.00;100169.38;688529;28;1759;-68
2023/07/16 00:09:16;;;;;;;2.77;1.60;;;;;;;18.50;100.00;100167.69;690874;28;885;-67
2023/07/16 00:09:36;;;;;;;3.03;1.70;;;;;;;18.50;100.00;100170.31;690546;28;785;-67
2023/07/16 00:09:56;;;;;;;3.30;1.83;;;;;;;18.58;100.00;100165.53;688732;28;4299;-68
2023/07/16 00:10:17;;;;;;;3.73;1.83;;;;;;;18.59;100.00;100169.88;690239;28;1098;-68
2023/07/16 00:10:37;;;;;;;3.80;1.57;;;;;;;18.57;100.00;100169.09;690647;28;896;-67
2023/07/16 00:10:57;;;;;;;3.47;1.57;;;;;;;18.55;100.00;100169.19;689202;28;1645;-68
2023/07/16 00:11:18;;;;;;;3.33;1.70;;;;;;;18.54;100.00;100174.56;690569;28;1479;-67
2023/07/16 00:11:38;;;;;;;3.60;1.60;;;;;;;18.53;100.00;100172.81;690545;28;1382;-67
2023/07/16 00:11:59;;;;;;;3.28;1.60;;;;;;;18.52;100.00;100171.09;689237;28;1570;-67
2023/07/16 00:12:20;;;;;;;3.00;1.40;;;;;;;18.52;100.00;100173.75;690666;28;838;-68
2023/07/16 00:12:40;;;;;;;3.40;1.60;;;;;;;18.52;100.00;100174.59;686994;28;927;-68
2023/07/16 00:13:02;;;;;;;3.33;1.50;;;;;;;18.52;100.00;100171.09;687108;28;4346;-67
2023/07/16 00:13:23;;;;;;;3.47;1.70;;;;;;;18.54;100.00;100170.09;690563;28;786;-68
2023/07/16 00:13:46;;;;;;;3.00;1.60;;;;;;;18.61;100.00;100170.69;689341;28;2671;-67
2023/07/16 00:14:07;;;;;;;3.38;1.58;;;;;;;18.61;100.00;100178.63;690036;28;896;-68
2023/07/16 00:14:28;;;;;;;3.50;1.60;;;;;;;18.58;100.00;100181.41;690833;28;861;-67
2023/07/16 00:14:48;;;;;;;3.63;1.60;;;;;;;18.57;100.00;100174.41;689662;28;1554;-67
2023/07/16 00:15:09;;;;;;;4.18;1.70;;;;;;;18.56;100.00;100180.63;690238;28;924;-67
2023/07/16 00:15:30;;;;;;;3.57;1.70;;;;;;;18.57;100.00;100173.53;690681;28;1213;-67
2023/07/16 00:15:51;;;;;;;3.03;1.50;;;;;;;18.62;100.00;100172.41;688773;28;4294;-67
2023/07/16 00:16:12;;;;;;;3.10;1.53;;;;;;;18.63;100.00;100174.09;690376;28;916;-67
2023/07/16 00:16:33;;;;;;;3.40;1.60;;;;;;;18.61;100.00;100175.97;690179;28;3038;-67
2023/07/16 00:16:53;;;;;;;4.20;1.83;;;;;;;18.60;100.00;100173.41;686626;28;1722;-67
2023/07/16 00:17:14;;;;;;;4.78;1.90;;;;;;;18.66;100.00;100176.63;687231;28;791;-67
2023/07/16 00:17:34;;;;;;;2.87;1.47;;;;;;;18.70;100.00;100175.53;687665;28;1011;-67
2023/07/16 00:17:55;;;;;;;2.92;1.50;;;;;;;18.76;100.00;100179.72;685890;28;1398;-67
2023/07/16 00:18:15;;;;;;;3.00;1.60;;;;;;;18.75;100.00;100182.41;688039;28;881;-67
2023/07/16 00:18:35;;;;;;;3.30;1.60;;;;;;;18.73;100.00;100179.84;687200;28;1982;-67
2023/07/16 00:18:56;;;;;;;3.97;1.70;;;;;;;18.83;100.00;100174.97;686247;28;5279;-68
2023/07/16 00:19:17;;;;;;;4.63;1.75;;;;;;;18.91;100.00;100183.44;687817;28;754;-67
2023/07/16 00:19:37;;;;;;;3.30;1.60;;;;;;;18.98;100.00;100170.78;690640;28;972;-71
2023/07/16 00:19:57;;;;;;;4.10;1.63;;;;;;;18.97;100.00;100177.88;689433;28;1475;-70
2023/07/16 00:20:18;;;;;;;3.70;1.70;;;;;;;18.97;100.00;100172.56;690089;28;1313;-68
2023/07/16 00:20:38;;;;;;;3.47;1.67;;;;;;;18.96;100.00;100178.78;690736;28;894;-68
2023/07/16 00:20:59;;;;;;;2.97;1.60;;;;;;;18.97;100.00;100175.22;689539;28;1576;-68
2023/07/16 00:21:20;;;;;;;4.13;1.73;;;;;;;18.98;100.00;100179.59;690302;28;924;-67
2023/07/16 00:21:40;;;;;;;3.70;1.60;;;;;;;18.94;100.00;100185.09;689532;28;1649;-67
2023/07/16 00:22:01;;;;;;;4.40;1.63;;;;;;;18.87;100.00;100187.13;690088;28;4492;-67
2023/07/16 00:22:21;;;;;;;4.23;1.60;;;;;;;18.84;100.00;100184.63;690049;28;853;-68
2023/07/16 00:22:41;;;;;;;3.97;1.80;;;;;;;18.98;100.00;100179.59;686666;28;1814;-68
2023/07/16 00:23:02;;;;;;;3.60;1.63;;;;;;;18.96;100.00;100188.53;685339;28;798;-67
2023/07/16 00:23:23;;;;;;;3.95;1.60;;;;;;;18.87;100.00;100184.47;685175;28;1070;-67
2023/07/16 00:23:43;;;;;;;3.43;1.80;;;;;;;18.87;100.00;100189.78;686721;28;1596;-67
2023/07/16 00:24:04;;;;;;;3.43;1.70;;;;;;;18.84;100.00;100184.63;687910;28;1358;-67
2023/07/16 00:24:25;;;;;;;3.47;1.60;;;;;;;18.82;100.00;100189.16;684969;28;940;-68
2023/07/16 00:24:45;;;;;;;3.60;1.70;;;;;;;18.81;100.00;100188.28;683154;28;5190;-67
2023/07/16 00:25:07;;;;;;;4.03;1.97;;;;;;;18.94;100.00;100193.91;688066;28;865;-68
2023/07/16 00:25:27;;;;;;;4.68;2.00;;;;;;;19.01;100.00;100181.22;687621;28;1642;-68
2023/07/16 00:25:48;;;;;;;4.50;1.90;;;;;;;19.04;100.00;100184.59;686157;28;1489;-68
2023/07/16 00:26:08;;;;;;;4.18;1.80;;;;;;;19.00;100.00;100185.66;685249;28;1187;-67
2023/07/16 00:26:29;;;;;;;3.27;1.60;;;;;;;19.01;100.00;100187.38;685259;28;1271;-68
2023/07/16 00:26:49;;;;;;;3.90;1.80;;;;;;;19.02;100.00;100182.94;683968;28;1505;-67
2023/07/16 00:27:10;;;;;;;4.33;1.90;;;;;;;19.03;100.00;100185.50;678550;29;1268;-68
2023/07/16 00:27:30;;;;;;;4.63;1.65;;;;;;;18.97;100.00;100188.47;680331;29;1422;-67
2023/07/16 00:27:51;;;;;;;3.60;1.80;;;;;;;18.93;100.00;100197.47;680087;28;4480;-68
2023/07/16 00:28:11;;;;;;;3.08;1.60;;;;;;;18.98;100.00;100189.31;685583;28;844;-70
2023/07/16 00:28:32;;;;;;;4.03;1.75;;;;;;;19.01;100.00;100183.84;685008;28;1528;-69
2023/07/16 00:28:53;;;;;;;4.60;2.00;;;;;;;18.97;100.00;100187.59;681798;28;1556;-69
2023/07/16 00:29:13;;;;;;;4.00;1.92;;;;;;;18.92;100.00;100190.47;686800;28;783;-67
2023/07/16 00:29:34;;;;;;;4.13;2.10;;;;;;;18.84;100.00;100187.28;687189;28;1299;-63
2023/07/16 00:29:54;;;;;;;4.75;1.83;;;;;;;18.83;100.00;100191.72;683483;28;1350;-69
2023/07/16 00:30:15;;;;;;;4.17;1.70;;;;;;;18.86;100.00;100186.28;680550;28;791;-71
2023/07/16 00:30:35;;;;;;;4.35;2.10;;;;;;;18.98;100.00;100195.47;685288;28;1325;-70
2023/07/16 00:30:56;;;;;;;4.70;2.20;;;;;;;18.95;100.00;100189.47;684383;28;4968;-68
2023/07/16 00:31:16;;;;;;;3.97;1.63;;;;;;;19.02;100.00;100193.53;687725;28;1221;-69
2023/07/16 00:31:37;;;;;;;4.17;1.60;;;;;;;19.03;100.00;100189.97;686069;28;935;-68
2023/07/16 00:31:57;;;;;;;5.70;1.57;;;;;;;18.99;100.00;100201.63;688355;28;1464;-68
2023/07/16 00:32:18;;;;;;;4.40;1.65;;;;;;;18.96;100.00;100193.84;689889;28;821;-68
2023/07/16 00:32:39;;;;;;;4.70;2.30;;;;;;;19.04;100.00;100189.03;689814;28;1291;-69
2023/07/16 00:32:59;;;;;;;4.93;1.70;;;;;;;19.02;100.00;100189.13;688510;28;1698;-69
2023/07/16 00:33:19;;;;;;;3.83;1.63;;;;;;;18.94;100.00;100196.56;690769;28;868;-68
2023/07/16 00:33:40;;;;;;;3.88;1.70;;;;;;;18.95;100.00;100195.59;688055;28;947;-69
2023/07/16 00:34:00;;;;;;;4.50;1.57;;;;;;;19.00;100.00;100203.34;683025;28;4396;-68
2023/07/16 00:34:21;;;;;;;4.30;1.70;;;;;;;19.01;100.00;100202.41;685289;28;1334;-69
2023/07/16 00:34:41;;;;;;;4.10;1.80;;;;;;;18.94;100.00;100204.50;683845;28;1614;-68
2023/07/16 00:35:03;;;;;;;4.05;1.88;;;;;;;19.01;100.00;100203.28;685190;28;909;-70
2023/07/16 00:35:23;;;;;;;3.50;1.60;;;;;;;19.04;100.00;100199.63;688453;28;821;-69
2023/07/16 00:35:49;;;;;;;3.17;1.70;;;;;;;18.95;100.00;100195.59;689633;28;1779;-68
2023/07/16 00:36:09;;;;;;;4.00;1.63;;;;;;;18.93;100.00;100200.13;689309;28;1657;-67
2023/07/16 00:36:30;;;;;;;4.00;1.70;;;;;;;18.95;100.00;100200.06;688109;28;857;-68
2023/07/16 00:36:50;;;;;;;3.23;1.50;;;;;;;18.98;100.00;100200.78;686179;28;4329;-68
2023/07/16 00:37:11;;;;;;;3.78;1.63;;;;;;;18.97;100.00;100195.53;687523;28;1260;-68
2023/07/16 00:37:31;;;;;;;3.47;1.53;;;;;;;18.94;100.00;100199.22;687395;28;1310;-68
2023/07/16 00:37:51;;;;;;;3.75;1.70;;;;;;;18.97;100.00;100196.41;686851;28;1473;-68
2023/07/16 00:38:12;;;;;;;4.00;1.57;;;;;;;18.98;100.00;100198.13;687206;28;1105;-68
2023/07/16 00:38:32;;;;;;;3.40;1.60;;;;;;;18.98;100.00;100194.59;687563;28;1922;-69
2023/07/16 00:38:53;;;;;;;3.57;1.60;;;;;;;18.96;100.00;100205.28;686106;28;5166;-68
2023/07/16 00:39:14;;;;;;;3.30;1.45;;;;;;;18.96;100.00;100196.47;687417;28;1390;-68
2023/07/16 00:39:34;;;;;;;3.95;1.67;;;;;;;18.98;100.00;100192.84;685173;28;1582;-69
2023/07/16 00:39:55;;;;;;;4.30;1.70;;;;;;;18.99;100.00;100196.34;683810;28;4340;-69
2023/07/16 00:40:17;;;;;;;3.10;1.70;;;;;;;18.93;100.00;100202.78;687116;28;888;-68
2023/07/16 00:40:37;;;;;;;3.37;1.80;;;;;;;18.85;100.00;100194.31;687586;28;908;-68
2023/07/16 00:40:58;;;;;;;3.37;1.53;;;;;;;18.81;100.00;100198.03;684111;28;1781;-70
2023/07/16 00:41:18;;;;;;;4.07;1.60;;;;;;;18.77;100.00;100197.28;687977;28;964;-68
2023/07/16 00:41:39;;;;;;;4.23;1.77;;;;;;;18.76;100.00;100192.06;688116;28;904;-68
2023/07/16 00:42:00;;;;;;;4.20;1.80;;;;;;;18.84;100.00;100203.16;687565;28;1677;-68
2023/07/16 00:42:20;;;;;;;4.30;1.80;;;;;;;18.85;100.00;100208.38;687782;28;1349;-69
2023/07/16 00:42:41;;;;;;;3.70;1.70;;;;;;;18.93;100.00;100202.78;690515;28;1252;-69
2023/07/16 00:43:02;;;;;;;4.25;1.80;;;;;;;18.99;100.00;100201.63;686205;28;4584;-68
2023/07/16 00:43:22;;;;;;;4.35;1.65;;;;;;;19.07;100.00;100193.34;684988;28;832;-69
2023/07/16 00:43:43;;;;;;;5.20;1.60;;;;;;;19.00;100.00;100198.91;684024;28;1460;-69
2023/07/16 00:44:03;;;;;;;4.75;1.55;;;;;;;18.96;100.00;100210.56;687977;28;1413;-70
2023/07/16 00:44:24;;;;;;;4.80;1.67;;;;;;;18.87;100.00;100203.94;687375;28;1695;-68
2023/07/16 00:44:44;;;;;;;4.60;1.60;;;;;;;18.96;100.00;100199.13;686705;28;1542;-69
2023/07/16 00:45:12;;;;;;;3.03;1.40;;;;;;;18.97;100.00;100204.34;687678;28;1439;-68
2023/07/16 00:45:33;;;;;;;4.55;1.60;;;;;;;18.91;100.00;100204.63;686927;28;858;-68
2023/07/16 00:45:53;;;;;;;3.58;1.60;;;;;;;18.96;100.00;100196.47;684010;28;4412;-68
2023/07/16 00:46:14;;;;;;;3.63;1.73;;;;;;;18.95;100.00;100202.69;687674;28;889;-69
2023/07/16 00:46:36;;;;;;;3.55;1.65;;;;;;;18.92;100.00;100202.84;688267;28;1138;-70
2023/07/16 00:46:57;;;;;;;3.33;1.60;;;;;;;18.88;100.00;100196.84;686621;28;1487;-68
2023/07/16 00:47:18;;;;;;;4.13;1.63;;;;;;;18.94;100.00;100201.84;688034;28;1318;-68
2023/07/16 00:47:44;;;;;;;4.40;1.52;;;;;;;18.89;100.00;100202.06;687831;28;1218;-66
2023/07/16 00:48:06;;;;;;;4.05;1.40;;;;;;;18.89;100.00;100202.06;688962;28;1153;-68
2023/07/16 00:48:29;;;;;;;4.10;1.65;;;;;;;18.93;100.00;100201.91;688440;28;900;-70
2023/07/16 00:48:50;;;;;;;5.10;1.60;;;;;;;18.98;100.00;100206.09;686870;28;4610;-69
2023/07/16 00:49:11;;;;;;;5.28;1.67;;;;;;;19.01;100.00;100200.63;689901;28;1432;-69
2023/07/16 00:49:32;;;;;;;3.22;1.60;;;;;;;19.03;100.00;100200.56;691119;28;900;-69
2023/07/16 00:49:52;;;;;;;4.00;1.80;;;;;;;19.07;100.00;100201.28;683448;28;1518;-69
2023/07/16 00:50:14;;;;;;;3.67;1.67;;;;;;;19.04;100.00;100199.63;683111;28;1231;-69
2023/07/16 00:50:39;;;;;;;3.65;1.50;;;;;;;18.98;100.00;100199.91;684088;28;1281;-69
2023/07/16 00:51:01;;;;;;;2.92;1.40;;;;;;;19.04;100.00;100208.41;684926;28;1469;-69
2023/07/16 00:51:24;;;;;;;4.32;1.48;;;;;;;18.92;100.00;100198.41;682788;28;2095;-69
2023/07/16 00:51:45;;;;;;;3.83;1.45;;;;;;;18.89;100.00;100201.22;681569;28;4772;-68
2023/07/16 00:52:18;;;;;;;4.03;1.60;;;;;;;18.83;100.00;100206.75;684964;28;1106;-68
2023/07/16 00:52:39;;;;;;;4.25;1.58;;;;;;;18.76;100.00;100210.59;687623;28;964;-69
2023/07/16 00:53:03;;;;;;;3.92;1.55;;;;;;;18.81;100.00;100211.25;683365;28;1799;-68
2023/07/16 00:53:27;;;;;;;3.90;1.70;;;;;;;18.77;100.00;100207.88;689443;28;944;-68
2023/07/16 00:53:48;;;;;;;4.32;1.67;;;;;;;18.74;100.00;100207.19;686805;28;1665;-69
2023/07/16 00:54:11;;;;;;;4.47;1.48;;;;;;;18.72;100.00;100207.25;687157;28;1150;-69
2023/07/16 00:54:32;;;;;;;5.47;1.50;;;;;;;18.73;100.00;100203.66;688009;28;877;-68
2023/07/16 00:54:53;;;;;;;4.87;1.60;;;;;;;18.77;100.00;100207.03;684718;28;4480;-68
2023/07/16 00:55:14;;;;;;;3.92;1.55;;;;;;;18.76;100.00;100207.97;687655;28;1765;-68
2023/07/16 00:55:36;;;;;;;4.18;1.65;;;;;;;18.71;100.00;100210.81;688332;28;1429;-68
2023/07/16 00:55:57;;;;;;;4.30;1.60;;;;;;;18.67;100.00;100209.25;686472;28;1790;-68
2023/07/16 00:56:17;;;;;;;3.60;1.53;;;;;;;18.64;100.00;100207.59;687250;28;1036;-68
2023/07/16 00:56:38;;;;;;;4.07;1.58;;;;;;;18.66;100.00;100208.41;686243;28;793;-69
2023/07/16 00:56:59;;;;;;;4.63;1.73;;;;;;;18.66;100.00;100207.53;687685;28;1481;-68
2023/07/16 00:57:19;;;;;;;4.15;1.83;;;;;;;18.65;100.00;100204.03;687611;28;848;-66
2023/07/16 00:57:40;;;;;;;4.47;1.80;;;;;;;18.64;100.00;100204.09;685611;28;1476;-68
2023/07/16 00:58:05;;;;;;;5.30;1.80;;;;;;;18.68;100.00;100208.31;679788;28;4294;-69
2023/07/16 00:58:25;;;;;;;3.30;1.48;;;;;;;18.64;100.00;100201.47;680668;29;1914;-68
2023/07/16 00:58:46;;;;;;;3.90;1.40;;;;;;;18.64;100.00;100207.59;679590;28;1727;-68
2023/07/16 00:59:07;;;;;;;4.30;1.70;;;;;;;18.62;100.00;100209.47;680359;29;936;-67
2023/07/16 00:59:27;;;;;;;3.60;1.75;;;;;;;18.65;100.00;100213.75;682887;28;1121;-68
2023/07/16 00:59:48;;;;;;;3.20;1.60;;;;;;;18.76;100.00;100205.31;684669;28;1588;-70
2023/07/16 01:00:11;;;;;;;4.15;1.50;;;;;;;18.70;100.00;100203.81;685439;28;1394;-69
2023/07/16 01:00:33;;;;;;;4.82;1.60;;;;;;;18.68;100.00;100206.53;686812;28;1051;-69
2023/07/16 01:00:54;;;;;;;5.25;1.73;;;;;;;18.68;100.00;100208.31;685584;28;4367;-70
2023/07/16 01:01:14;;;;;;;4.03;1.77;;;;;;;18.70;100.00;100209.94;684869;28;1603;-69
2023/07/16 01:01:35;;;;;;;4.30;1.53;;;;;;;18.67;100.00;100210.09;684716;28;1533;-69
2023/07/16 01:01:55;;;;;;;3.80;1.40;;;;;;;18.68;100.00;100203.88;683557;28;1570;-68
2023/07/16 01:02:17;;;;;;;2.88;1.40;;;;;;;18.68;100.00;100206.53;686333;28;1257;-68
2023/07/16 01:02:37;;;;;;;3.95;1.70;;;;;;;18.70;100.00;100202.00;685275;28;1108;-68
2023/07/16 01:02:58;;;;;;;4.13;1.70;;;;;;;18.81;100.00;100204.16;686949;28;1590;-68
2023/07/16 01:03:19;;;;;;;2.70;1.50;;;;;;;18.75;100.00;100211.53;689675;28;1434;-68
2023/07/16 01:03:39;;;;;;;3.03;1.50;;;;;;;18.67;100.00;100206.59;690130;28;896;-68
2023/07/16 01:04:00;;;;;;;3.37;1.60;;;;;;;18.70;100.00;100209.94;688873;28;4529;-69
2023/07/16 01:04:21;;;;;;;3.25;1.50;;;;;;;18.74;100.00;100205.38;687665;28;1534;-68
2023/07/16 01:04:41;;;;;;;3.07;1.60;;;;;;;18.79;100.00;100202.50;687348;28;987;-68
2023/07/16 01:05:03;;;;;;;5.37;2.30;;;;;;;18.80;100.00;100209.53;686253;28;1505;-68
2023/07/16 01:05:27;;;;;;;5.03;2.08;;;;;;;18.74;100.00;100201.88;687471;28;1601;-68
2023/07/16 01:06:03;;;;;;;3.97;1.67;;;;;;;18.66;100.00;100204.88;683852;28;1675;-68
2023/07/16 01:06:23;;;;;;;3.80;1.60;;;;;;;18.60;100.00;100205.16;687834;28;1106;-67
2023/07/16 01:06:50;;;;;;;3.35;1.60;;;;;;;18.63;100.00;100197.94;682863;28;4578;-68
2023/07/16 01:07:13;;;;;;;4.00;1.50;;;;;;;18.56;100.00;100199.16;685464;28;1043;-68
2023/07/16 01:07:36;;;;;;;4.05;1.50;;;;;;;18.63;100.00;100197.94;687675;28;980;-68
2023/07/16 01:08:01;;;;;;;5.05;1.50;;;;;;;18.58;100.00;100207.88;686573;28;1467;-68
2023/07/16 01:08:35;;;;;;;3.75;1.52;;;;;;;18.57;100.00;100211.47;687417;28;1389;-68
2023/07/16 01:09:03;;;;;;;4.68;1.70;;;;;;;18.55;100.00;100205.34;687705;28;1645;-68
2023/07/16 01:09:24;;;;;;;3.30;1.55;;;;;;;18.49;100.00;100203.84;688688;28;953;-68
2023/07/16 01:09:45;;;;;;;3.42;1.42;;;;;;;18.50;100.00;100202.09;687969;28;4546;-67
2023/07/16 01:10:07;;;;;;;4.90;1.65;;;;;;;18.50;100.00;100196.78;690164;28;882;-69
2023/07/16 01:10:28;;;;;;;3.67;1.50;;;;;;;18.48;100.00;100202.13;686912;28;777;-67
2023/07/16 01:10:49;;;;;;;3.80;1.60;;;;;;;18.48;100.00;100201.28;682441;28;1531;-68
2023/07/16 01:11:10;;;;;;;3.77;1.80;;;;;;;18.52;100.00;100202.84;684984;28;755;-67
2023/07/16 01:11:31;;;;;;;4.20;1.60;;;;;;;18.54;100.00;100206.31;684451;28;1355;-68
2023/07/16 01:11:53;;;;;;;4.47;1.70;;;;;;;18.50;100.00;100202.94;684559;28;1469;-68
2023/07/16 01:12:14;;;;;;;3.58;1.60;;;;;;;18.47;100.00;100199.56;686658;28;833;-67
2023/07/16 01:12:36;;;;;;;3.90;1.73;;;;;;;18.54;100.00;100201.00;689796;28;3215;-69
2023/07/16 01:12:57;;;;;;;4.43;1.73;;;;;;;18.51;100.00;100202.00;688530;28;5819;-70
2023/07/16 01:13:19;;;;;;;4.68;1.60;;;;;;;18.45;100.00;100207.56;691323;28;803;-69
2023/07/16 01:13:42;;;;;;;3.85;1.63;;;;;;;18.42;100.00;100206.84;689948;28;2205;-68
2023/07/16 01:14:03;;;;;;;3.33;1.70;;;;;;;18.42;100.00;100206.84;688932;28;1583;-68
2023/07/16 01:14:24;;;;;;;3.75;1.60;;;;;;;18.41;100.00;100203.34;688573;28;1374;-67
2023/07/16 01:14:44;;;;;;;3.67;1.50;;;;;;;18.43;100.00;100204.13;686397;28;1678;-67
2023/07/16 01:15:05;;;;;;;3.63;1.40;;;;;;;18.42;100.00;100204.22;684263;28;1504;-67
2023/07/16 01:15:26;;;;;;;4.03;1.52;;;;;;;18.43;100.00;100208.56;684977;28;1394;-67
2023/07/16 01:15:46;;;;;;;4.45;1.80;;;;;;;18.49;100.00;100203.00;680184;28;4609;-68
2023/07/16 01:16:21;;;;;;;4.55;1.73;;;;;;;18.44;100.00;100207.63;681993;29;1311;-69
2023/07/16 01:16:42;;;;;;;4.05;1.33;;;;;;;18.38;100.00;100206.13;684083;28;957;-68
2023/07/16 01:17:04;;;;;;;3.35;1.50;;;;;;;18.35;100.00;100201.81;684414;28;1479;-68
2023/07/16 01:17:25;;;;;;;3.90;1.65;;;;;;;18.33;100.00;100211.63;687869;28;1207;-67
2023/07/16 01:17:45;;;;;;;5.28;1.98;;;;;;;18.35;100.00;100206.28;685544;28;1516;-68
2023/07/16 01:18:06;;;;;;;4.47;1.57;;;;;;;18.36;100.00;100203.56;688809;28;813;-68
2023/07/16 01:18:26;;;;;;;2.78;1.45;;;;;;;18.42;100.00;100201.56;688616;28;1926;-68
2023/07/16 01:18:47;;;;;;;4.20;1.60;;;;;;;18.43;100.00;100208.56;684374;28;5559;-68
2023/07/16 01:19:08;;;;;;;3.28;1.40;;;;;;;18.40;100.00;100208.69;687062;28;1425;-67
2023/07/16 01:19:28;;;;;;;3.70;1.63;;;;;;;18.35;100.00;100207.13;687284;28;1388;-67
2023/07/16 01:19:49;;;;;;;4.40;1.60;;;;;;;18.32;100.00;100207.25;688339;28;1479;-67
2023/07/16 01:20:11;;;;;;;3.27;1.50;;;;;;;18.28;100.00;100210.97;686432;28;1179;-68
2023/07/16 01:20:31;;;;;;;3.15;1.52;;;;;;;18.26;100.00;100211.97;685329;28;1235;-68
2023/07/16 01:20:52;;;;;;;2.50;1.40;;;;;;;18.22;100.00;100205.97;687802;28;1546;-68
2023/07/16 01:21:13;;;;;;;3.95;1.50;;;;;;;18.25;100.00;100210.22;687390;28;1201;-67
2023/07/16 01:21:51;;;;;;;4.03;1.50;;;;;;;18.37;100.00;100207.91;686123;28;901;-68
2023/07/16 01:22:30;;;;;;;3.90;1.70;;;;;;;18.32;100.00;100207.25;690049;28;4891;-68
2023/07/16 01:23:26;;;;;;;3.40;1.58;;;;;;;18.26;100.00;100210.16;689308;28;1583;-67
2023/07/16 01:24:00;;;;;;;4.60;1.70;;;;;;;18.32;100.00;100207.25;690260;28;1523;-68
2023/07/16 01:25:09;;;;;;;3.58;1.50;;;;;;;18.29;100.00;100212.69;692124;28;1472;-68
2023/07/16 01:25:56;;;;;;;3.15;1.50;;;;;;;18.32;100.00;100203.75;688447;28;5034;-68
2023/07/16 01:26:39;;;;;;;3.05;1.50;;;;;;;18.21;100.00;100209.53;685760;28;1422;-67
2023/07/16 01:27:09;;;;;;;4.53;1.60;;;;;;;18.23;100.00;100202.38;683250;28;1640;-68
2023/07/16 01:27:38;;;;;;;2.75;1.52;;;;;;;18.20;100.00;100202.50;684652;28;1363;-68
2023/07/16 01:28:13;;;;;;;3.85;1.60;;;;;;;18.17;100.00;100207.94;685089;28;4368;-68
2023/07/16 01:29:04;;;;;;;3.60;1.60;;;;;;;18.13;100.00;100206.34;690266;28;988;-67
2023/07/16 01:29:33;;;;;;;3.80;1.50;;;;;;;18.15;100.00;100209.78;690306;28;1348;-68
2023/07/16 01:30:04;;;;;;;2.95;1.40;;;;;;;18.14;100.00;100208.94;689095;28;1736;-68
2023/07/16 01:30:27;;;;;;;3.50;1.77;;;;;;;18.10;100.00;100207.34;689287;28;905;-68
2023/07/16 01:30:51;;;;;;;4.85;1.52;;;;;;;18.12;100.00;100213.41;687313;28;4405;-68
2023/07/16 01:31:12;;;;;;;3.10;1.45;;;;;;;18.15;100.00;100210.66;687764;28;1000;-68
2023/07/16 01:31:34;;;;;;;4.45;1.90;;;;;;;18.14;100.00;100214.22;687640;28;950;-68
2023/07/16 01:31:57;;;;;;;3.78;1.85;;;;;;;18.12;100.00;100208.13;683533;28;1623;-68
2023/07/16 01:32:18;;;;;;;3.67;1.60;;;;;;;18.10;100.00;100210.00;681785;28;1449;-68
2023/07/16 01:32:39;;;;;;;4.33;1.53;;;;;;;18.16;100.00;100212.34;686070;28;1005;-68
2023/07/16 01:33:02;;;;;;;3.50;1.40;;;;;;;18.13;100.00;100214.28;684090;28;1852;-68
2023/07/16 01:33:25;;;;;;;3.33;1.58;;;;;;;18.12;100.00;100209.91;687765;28;928;-69
2023/07/16 01:33:47;;;;;;;3.03;1.45;;;;;;;18.08;100.00;100208.31;682457;28;4360;-68
2023/07/16 01:34:09;;;;;;;3.90;1.60;;;;;;;18.05;100.00;100214.59;687117;28;1294;-68
2023/07/16 01:34:33;;;;;;;3.38;1.52;;;;;;;18.02;100.00;100210.31;687164;28;964;-68
2023/07/16 01:34:54;;;;;;;3.05;1.38;;;;;;;18.03;100.00;100208.53;687118;28;1453;-68
2023/07/16 01:35:14;;;;;;;4.05;1.50;;;;;;;18.08;100.00;100218.91;687342;28;2274;-68
2023/07/16 01:35:35;;;;;;;4.00;1.52;;;;;;;18.11;100.00;100209.06;686835;28;1355;-68
2023/07/16 01:35:57;;;;;;;4.50;1.70;;;;;;;18.10;100.00;100217.06;688853;28;1468;-68
2023/07/16 01:36:18;;;;;;;5.60;1.67;;;;;;;18.08;100.00;100213.63;687533;28;1441;-68
2023/07/16 01:36:40;;;;;;;3.38;1.50;;;;;;;18.05;100.00;100217.25;687215;28;925;-68
2023/07/16 01:37:02;;;;;;;2.78;1.50;;;;;;;18.01;100.00;100216.53;685518;28;4533;-67
2023/07/16 01:37:23;;;;;;;3.45;1.48;;;;;;;17.96;100.00;100215.88;687384;28;1413;-65
2023/07/16 01:37:44;;;;;;;4.00;1.60;;;;;;;17.94;100.00;100214.22;685896;28;1404;-68
2023/07/16 01:38:05;;;;;;;3.90;1.63;;;;;;;17.95;100.00;100215.94;686463;28;1647;-68
2023/07/16 01:38:25;;;;;;;4.60;1.70;;;;;;;17.99;100.00;100218.38;687551;28;1914;-68
2023/07/16 01:38:46;;;;;;;4.63;1.73;;;;;;;18.09;100.00;100216.19;685668;28;5254;-68
2023/07/16 01:39:07;;;;;;;5.15;2.03;;;;;;;18.17;100.00;100221.16;687156;28;850;-68
2023/07/16 01:39:28;;;;;;;3.93;2.03;;;;;;;18.18;100.00;100225.53;685166;28;1501;-68
2023/07/16 01:39:48;;;;;;;3.67;1.80;;;;;;;18.12;100.00;100217.84;683509;28;4424;-67
2023/07/16 01:40:09;;;;;;;3.55;1.60;;;;;;;18.07;100.00;100219.81;684632;28;1625;-68
2023/07/16 01:40:30;;;;;;;3.13;1.40;;;;;;;18.00;100.00;100227.19;684518;28;1366;-67
2023/07/16 01:40:50;;;;;;;2.92;1.40;;;;;;;17.98;100.00;100221.94;683644;28;1629;-67
2023/07/16 01:41:11;;;;;;;3.73;1.60;;;;;;;17.96;100.00;100221.16;684828;28;1188;-67
2023/07/16 01:41:31;;;;;;;3.70;1.58;;;;;;;17.93;100.00;100216.00;685011;28;1071;-67
2023/07/16 01:41:51;;;;;;;3.65;1.42;;;;;;;17.88;100.00;100217.94;686788;28;1535;-67
2023/07/16 01:42:13;;;;;;;3.53;1.50;;;;;;;17.91;100.00;100217.84;688611;28;1477;-67
2023/07/16 01:42:34;;;;;;;2.80;1.40;;;;;;;17.95;100.00;100224.72;688631;28;1497;-68
2023/07/16 01:42:54;;;;;;;4.40;1.60;;;;;;;17.89;100.00;100219.69;687244;28;4316;-67
2023/07/16 01:43:15;;;;;;;4.97;1.53;;;;;;;17.87;100.00;100216.22;687395;28;1205;-68
2023/07/16 01:43:35;;;;;;;4.18;1.70;;;;;;;17.83;100.00;100219.91;686885;28;1445;-67
2023/07/16 01:43:56;;;;;;;3.80;1.60;;;;;;;17.80;100.00;100215.59;684014;28;1629;-67
2023/07/16 01:44:17;;;;;;;4.15;1.70;;;;;;;17.85;100.00;100215.44;683175;28;1499;-70
2023/07/16 01:44:39;;;;;;;4.03;1.70;;;;;;;17.90;100.00;100216.09;680587;28;1281;-68
2023/07/16 01:44:59;;;;;;;4.40;1.50;;;;;;;17.85;100.00;100213.66;679722;28;1295;-68